sensor_id;sensor_type;location;lat;lon;timestamp;P1;durP1;ratioP1;P2;durP2;ratioP2
8552;SDS011;73833;51.014;16.950;2023-11-18T00:01:16;2.85;;;2.22;;
8552;SDS011;73833;51.014;16.950;2023-11-18T00:03:41;2.30;;;2.10;;
8552;SDS011;73833;51.014;16.950;2023-11-18T00:06:07;2.35;;;2.15;;
8552;SDS011;73833;51.014;16.950;2023-11-18T00:08:33;2.25;;;2.05;;
8552;SDS011;73833;51.014;16.950;2023-11-18T00:10:58;2.20;;;2.00;;
8552;SDS011;73833;51.014;16.950;2023-11-18T00:13:23;2.55;;;2.30;;
8552;SDS011;73833;51.014;16.950;2023-11-18T00:15:48;2.55;;;2.13;;
8552;SDS011;73833;51.014;16.950;2023-11-18T00:18:13;2.10;;;2.00;;
8552;SDS011;73833;51.014;16.950;2023-11-18T00:20:39;2.22;;;2.05;;
8552;SDS011;73833;51.014;16.950;2023-11-18T00:23:04;2.22;;;2.10;;
8552;SDS011;73833;51.014;16.950;2023-11-18T00:25:29;2.03;;;1.92;;
8552;SDS011;73833;51.014;16.950;2023-11-18T00:27:55;2.17;;;2.08;;
8552;SDS011;73833;51.014;16.950;2023-11-18T00:30:20;2.60;;;2.40;;
8552;SDS011;73833;51.014;16.950;2023-11-18T00:32:45;2.20;;;2.10;;
8552;SDS011;73833;51.014;16.950;2023-11-18T00:35:10;2.63;;;2.25;;
8552;SDS011;73833;51.014;16.950;2023-11-18T00:37:36;2.40;;;2.20;;
8552;SDS011;73833;51.014;16.950;2023-11-18T00:40:01;2.42;;;2.20;;
8552;SDS011;73833;51.014;16.950;2023-11-18T00:42:26;2.15;;;2.05;;
8552;SDS011;73833;51.014;16.950;2023-11-18T00:44:51;2.22;;;2.05;;
8552;SDS011;73833;51.014;16.950;2023-11-18T00:47:17;2.60;;;2.05;;
8552;SDS011;73833;51.014;16.950;2023-11-18T00:49:43;3.03;;;2.25;;
8552;SDS011;73833;51.014;16.950;2023-11-18T00:52:08;2.10;;;2.00;;
8552;SDS011;73833;51.014;16.950;2023-11-18T00:54:34;2.50;;;2.40;;
8552;SDS011;73833;51.014;16.950;2023-11-18T00:57:00;2.58;;;1.88;;
8552;SDS011;73833;51.014;16.950;2023-11-18T00:59:25;2.03;;;1.92;;
8552;SDS011;73833;51.014;16.950;2023-11-18T01:01:51;3.38;;;2.17;;
8552;SDS011;73833;51.014;16.950;2023-11-18T01:04:17;3.53;;;2.13;;
8552;SDS011;73833;51.014;16.950;2023-11-18T01:06:43;1.95;;;1.85;;
8552;SDS011;73833;51.014;16.950;2023-11-18T01:09:08;2.72;;;1.88;;
8552;SDS011;73833;51.014;16.950;2023-11-18T01:11:34;1.63;;;1.60;;
8552;SDS011;73833;51.014;16.950;2023-11-18T01:14:00;3.97;;;1.63;;
8552;SDS011;73833;51.014;16.950;2023-11-18T01:16:27;1.83;;;1.73;;
8552;SDS011;73833;51.014;16.950;2023-11-18T01:18:53;1.90;;;1.80;;
8552;SDS011;73833;51.014;16.950;2023-11-18T01:21:19;2.38;;;1.75;;
8552;SDS011;73833;51.014;16.950;2023-11-18T01:23:44;1.85;;;1.75;;
8552;SDS011;73833;51.014;16.950;2023-11-18T01:26:10;1.83;;;1.73;;
8552;SDS011;73833;51.014;16.950;2023-11-18T01:28:37;1.92;;;1.83;;
8552;SDS011;73833;51.014;16.950;2023-11-18T01:31:06;2.40;;;2.30;;
8552;SDS011;73833;51.014;16.950;2023-11-18T01:33:37;1.90;;;1.80;;
8552;SDS011;73833;51.014;16.950;2023-11-18T01:36:03;3.13;;;1.90;;
8552;SDS011;73833;51.014;16.950;2023-11-18T01:38:29;1.75;;;1.65;;
8552;SDS011;73833;51.014;16.950;2023-11-18T01:40:55;1.88;;;1.77;;
8552;SDS011;73833;51.014;16.950;2023-11-18T01:43:20;1.80;;;1.70;;
8552;SDS011;73833;51.014;16.950;2023-11-18T01:45:47;2.00;;;1.90;;
8552;SDS011;73833;51.014;16.950;2023-11-18T01:48:13;2.78;;;2.00;;
8552;SDS011;73833;51.014;16.950;2023-11-18T01:50:39;1.85;;;1.75;;
8552;SDS011;73833;51.014;16.950;2023-11-18T01:53:05;2.15;;;1.70;;
8552;SDS011;73833;51.014;16.950;2023-11-18T01:55:30;2.28;;;2.08;;
8552;SDS011;73833;51.014;16.950;2023-11-18T01:57:56;2.35;;;2.08;;
8552;SDS011;73833;51.014;16.950;2023-11-18T02:00:24;2.00;;;1.90;;
8552;SDS011;73833;51.014;16.950;2023-11-18T02:02:49;2.10;;;2.00;;
8552;SDS011;73833;51.014;16.950;2023-11-18T02:05:15;1.92;;;1.83;;
8552;SDS011;73833;51.014;16.950;2023-11-18T02:07:41;1.90;;;1.80;;
8552;SDS011;73833;51.014;16.950;2023-11-18T02:10:07;1.50;;;1.50;;
8552;SDS011;73833;51.014;16.950;2023-11-18T02:12:38;2.97;;;2.35;;
8552;SDS011;73833;51.014;16.950;2023-11-18T02:15:08;2.08;;;1.88;;
8552;SDS011;73833;51.014;16.950;2023-11-18T02:17:35;1.73;;;1.63;;
8552;SDS011;73833;51.014;16.950;2023-11-18T02:20:02;1.65;;;1.60;;
8552;SDS011;73833;51.014;16.950;2023-11-18T02:22:31;2.00;;;1.90;;
8552;SDS011;73833;51.014;16.950;2023-11-18T02:24:56;1.85;;;1.75;;
8552;SDS011;73833;51.014;16.950;2023-11-18T02:27:22;2.10;;;1.90;;
8552;SDS011;73833;51.014;16.950;2023-11-18T02:29:49;1.80;;;1.70;;
8552;SDS011;73833;51.014;16.950;2023-11-18T02:34:45;1.98;;;1.83;;
8552;SDS011;73833;51.014;16.950;2023-11-18T02:37:13;1.73;;;1.55;;
8552;SDS011;73833;51.014;16.950;2023-11-18T02:39:48;1.60;;;1.50;;
8552;SDS011;73833;51.014;16.950;2023-11-18T02:42:18;2.03;;;1.92;;
8552;SDS011;73833;51.014;16.950;2023-11-18T02:44:46;1.58;;;1.55;;
8552;SDS011;73833;51.014;16.950;2023-11-18T02:47:13;1.55;;;1.50;;
8552;SDS011;73833;51.014;16.950;2023-11-18T02:49:41;1.90;;;1.80;;
8552;SDS011;73833;51.014;16.950;2023-11-18T02:52:06;2.15;;;2.05;;
8552;SDS011;73833;51.014;16.950;2023-11-18T02:54:34;1.75;;;1.65;;
8552;SDS011;73833;51.014;16.950;2023-11-18T02:57:00;2.20;;;2.00;;
8552;SDS011;73833;51.014;16.950;2023-11-18T02:59:25;2.28;;;2.15;;
8552;SDS011;73833;51.014;16.950;2023-11-18T03:01:53;1.98;;;1.88;;
8552;SDS011;73833;51.014;16.950;2023-11-18T03:04:18;1.85;;;1.75;;
8552;SDS011;73833;51.014;16.950;2023-11-18T03:06:44;1.70;;;1.60;;
8552;SDS011;73833;51.014;16.950;2023-11-18T03:09:09;1.85;;;1.75;;
8552;SDS011;73833;51.014;16.950;2023-11-18T03:11:35;1.90;;;1.80;;
8552;SDS011;73833;51.014;16.950;2023-11-18T03:14:00;1.63;;;1.52;;
8552;SDS011;73833;51.014;16.950;2023-11-18T03:16:26;1.85;;;1.75;;
8552;SDS011;73833;51.014;16.950;2023-11-18T03:18:52;1.77;;;1.67;;
8552;SDS011;73833;51.014;16.950;2023-11-18T03:21:17;1.70;;;1.52;;
8552;SDS011;73833;51.014;16.950;2023-11-18T03:23:44;1.80;;;1.70;;
8552;SDS011;73833;51.014;16.950;2023-11-18T03:26:10;1.80;;;1.70;;
8552;SDS011;73833;51.014;16.950;2023-11-18T03:28:35;1.95;;;1.80;;
8552;SDS011;73833;51.014;16.950;2023-11-18T03:31:01;1.80;;;1.70;;
8552;SDS011;73833;51.014;16.950;2023-11-18T03:33:28;1.55;;;1.50;;
8552;SDS011;73833;51.014;16.950;2023-11-18T03:35:53;2.00;;;1.90;;
8552;SDS011;73833;51.014;16.950;2023-11-18T03:38:20;1.75;;;1.65;;
8552;SDS011;73833;51.014;16.950;2023-11-18T03:40:45;1.70;;;1.60;;
8552;SDS011;73833;51.014;16.950;2023-11-18T03:43:11;1.58;;;1.48;;
8552;SDS011;73833;51.014;16.950;2023-11-18T03:45:39;1.55;;;1.45;;
8552;SDS011;73833;51.014;16.950;2023-11-18T03:48:05;2.72;;;1.73;;
8552;SDS011;73833;51.014;16.950;2023-11-18T03:50:31;1.95;;;1.85;;
8552;SDS011;73833;51.014;16.950;2023-11-18T03:52:56;1.63;;;1.60;;
8552;SDS011;73833;51.014;16.950;2023-11-18T03:55:21;1.55;;;1.55;;
8552;SDS011;73833;51.014;16.950;2023-11-18T03:57:46;1.88;;;1.77;;
8552;SDS011;73833;51.014;16.950;2023-11-18T04:00:14;1.67;;;1.50;;
8552;SDS011;73833;51.014;16.950;2023-11-18T04:02:40;1.55;;;1.55;;
8552;SDS011;73833;51.014;16.950;2023-11-18T04:05:05;1.88;;;1.77;;
8552;SDS011;73833;51.014;16.950;2023-11-18T04:07:31;1.80;;;1.70;;
8552;SDS011;73833;51.014;16.950;2023-11-18T04:09:56;1.58;;;1.58;;
8552;SDS011;73833;51.014;16.950;2023-11-18T04:12:21;2.30;;;2.17;;
8552;SDS011;73833;51.014;16.950;2023-11-18T04:14:49;1.98;;;1.88;;
8552;SDS011;73833;51.014;16.950;2023-11-18T04:17:14;1.73;;;1.63;;
8552;SDS011;73833;51.014;16.950;2023-11-18T04:19:39;1.95;;;1.80;;
8552;SDS011;73833;51.014;16.950;2023-11-18T04:22:04;1.70;;;1.67;;
8552;SDS011;73833;51.014;16.950;2023-11-18T04:24:30;1.98;;;1.88;;
8552;SDS011;73833;51.014;16.950;2023-11-18T04:26:55;1.70;;;1.60;;
8552;SDS011;73833;51.014;16.950;2023-11-18T04:29:20;1.85;;;1.75;;
8552;SDS011;73833;51.014;16.950;2023-11-18T04:31:46;1.80;;;1.70;;
8552;SDS011;73833;51.014;16.950;2023-11-18T04:34:11;1.73;;;1.50;;
8552;SDS011;73833;51.014;16.950;2023-11-18T04:36:37;1.90;;;1.80;;
8552;SDS011;73833;51.014;16.950;2023-11-18T04:39:02;1.77;;;1.67;;
8552;SDS011;73833;51.014;16.950;2023-11-18T04:41:28;1.98;;;1.88;;
8552;SDS011;73833;51.014;16.950;2023-11-18T04:43:53;1.88;;;1.77;;
8552;SDS011;73833;51.014;16.950;2023-11-18T04:46:19;1.40;;;1.40;;
8552;SDS011;73833;51.014;16.950;2023-11-18T04:48:44;1.45;;;1.45;;
8552;SDS011;73833;51.014;16.950;2023-11-18T04:51:09;1.85;;;1.75;;
8552;SDS011;73833;51.014;16.950;2023-11-18T04:53:36;1.30;;;1.30;;
8552;SDS011;73833;51.014;16.950;2023-11-18T04:56:01;2.03;;;1.92;;
8552;SDS011;73833;51.014;16.950;2023-11-18T04:58:27;1.63;;;1.52;;
8552;SDS011;73833;51.014;16.950;2023-11-18T05:00:53;1.90;;;1.80;;
8552;SDS011;73833;51.014;16.950;2023-11-18T05:03:18;2.35;;;1.77;;
8552;SDS011;73833;51.014;16.950;2023-11-18T05:05:44;1.70;;;1.70;;
8552;SDS011;73833;51.014;16.950;2023-11-18T05:08:17;1.60;;;1.50;;
8552;SDS011;73833;51.014;16.950;2023-11-18T05:10:46;1.90;;;1.80;;
8552;SDS011;73833;51.014;16.950;2023-11-18T05:13:11;1.60;;;1.60;;
8552;SDS011;73833;51.014;16.950;2023-11-18T05:15:37;1.77;;;1.67;;
8552;SDS011;73833;51.014;16.950;2023-11-18T05:18:04;1.60;;;1.60;;
8552;SDS011;73833;51.014;16.950;2023-11-18T05:20:33;2.72;;;1.70;;
8552;SDS011;73833;51.014;16.950;2023-11-18T05:22:58;1.80;;;1.70;;
8552;SDS011;73833;51.014;16.950;2023-11-18T05:25:23;1.90;;;1.80;;
8552;SDS011;73833;51.014;16.950;2023-11-18T05:27:49;1.70;;;1.70;;
8552;SDS011;73833;51.014;16.950;2023-11-18T05:30:14;2.08;;;1.88;;
8552;SDS011;73833;51.014;16.950;2023-11-18T05:32:40;1.90;;;1.80;;
8552;SDS011;73833;51.014;16.950;2023-11-18T05:35:05;2.97;;;1.70;;
8552;SDS011;73833;51.014;16.950;2023-11-18T05:37:31;1.88;;;1.77;;
8552;SDS011;73833;51.014;16.950;2023-11-18T05:40:03;1.90;;;1.80;;
8552;SDS011;73833;51.014;16.950;2023-11-18T05:42:31;2.00;;;1.77;;
8552;SDS011;73833;51.014;16.950;2023-11-18T05:44:56;1.80;;;1.70;;
8552;SDS011;73833;51.014;16.950;2023-11-18T05:47:26;2.08;;;1.98;;
8552;SDS011;73833;51.014;16.950;2023-11-18T05:49:52;1.65;;;1.55;;
8552;SDS011;73833;51.014;16.950;2023-11-18T05:52:17;1.80;;;1.70;;
8552;SDS011;73833;51.014;16.950;2023-11-18T05:54:42;1.98;;;1.88;;
8552;SDS011;73833;51.014;16.950;2023-11-18T05:57:07;1.90;;;1.80;;
8552;SDS011;73833;51.014;16.950;2023-11-18T05:59:32;1.90;;;1.80;;
8552;SDS011;73833;51.014;16.950;2023-11-18T06:01:58;1.90;;;1.80;;
8552;SDS011;73833;51.014;16.950;2023-11-18T06:04:23;1.70;;;1.60;;
8552;SDS011;73833;51.014;16.950;2023-11-18T06:06:49;1.77;;;1.70;;
8552;SDS011;73833;51.014;16.950;2023-11-18T06:09:14;1.88;;;1.77;;
8552;SDS011;73833;51.014;16.950;2023-11-18T06:11:46;1.75;;;1.75;;
8552;SDS011;73833;51.014;16.950;2023-11-18T06:14:11;1.95;;;1.85;;
8552;SDS011;73833;51.014;16.950;2023-11-18T06:16:37;2.10;;;2.00;;
8552;SDS011;73833;51.014;16.950;2023-11-18T06:19:04;2.10;;;2.00;;
8552;SDS011;73833;51.014;16.950;2023-11-18T06:21:30;2.10;;;2.00;;
8552;SDS011;73833;51.014;16.950;2023-11-18T06:23:56;2.08;;;1.98;;
8552;SDS011;73833;51.014;16.950;2023-11-18T06:26:21;2.20;;;2.05;;
8552;SDS011;73833;51.014;16.950;2023-11-18T06:28:47;2.00;;;1.90;;
8552;SDS011;73833;51.014;16.950;2023-11-18T06:31:14;2.00;;;1.90;;
8552;SDS011;73833;51.014;16.950;2023-11-18T06:33:40;2.40;;;2.17;;
8552;SDS011;73833;51.014;16.950;2023-11-18T06:36:08;2.45;;;2.28;;
8552;SDS011;73833;51.014;16.950;2023-11-18T06:38:33;2.22;;;1.90;;
8552;SDS011;73833;51.014;16.950;2023-11-18T06:40:59;2.33;;;2.13;;
8552;SDS011;73833;51.014;16.950;2023-11-18T06:43:27;1.92;;;1.83;;
8552;SDS011;73833;51.014;16.950;2023-11-18T06:46:00;2.40;;;2.10;;
8552;SDS011;73833;51.014;16.950;2023-11-18T06:48:26;2.30;;;2.10;;
8552;SDS011;73833;51.014;16.950;2023-11-18T06:50:51;2.78;;;2.55;;
8552;SDS011;73833;51.014;16.950;2023-11-18T06:53:16;3.58;;;2.30;;
8552;SDS011;73833;51.014;16.950;2023-11-18T06:55:41;2.70;;;2.50;;
8552;SDS011;73833;51.014;16.950;2023-11-18T06:58:07;3.05;;;2.53;;
8552;SDS011;73833;51.014;16.950;2023-11-18T07:00:32;2.63;;;2.42;;
8552;SDS011;73833;51.014;16.950;2023-11-18T07:02:57;3.30;;;2.78;;
8552;SDS011;73833;51.014;16.950;2023-11-18T07:05:23;2.72;;;2.53;;
8552;SDS011;73833;51.014;16.950;2023-11-18T07:07:49;6.28;;;3.30;;
8552;SDS011;73833;51.014;16.950;2023-11-18T07:10:14;3.65;;;2.75;;
8552;SDS011;73833;51.014;16.950;2023-11-18T07:12:43;5.18;;;2.70;;
8552;SDS011;73833;51.014;16.950;2023-11-18T07:15:08;3.03;;;2.75;;
8552;SDS011;73833;51.014;16.950;2023-11-18T07:17:35;4.22;;;2.67;;
8552;SDS011;73833;51.014;16.950;2023-11-18T07:20:00;6.20;;;2.55;;
8552;SDS011;73833;51.014;16.950;2023-11-18T07:22:26;8.27;;;2.70;;
8552;SDS011;73833;51.014;16.950;2023-11-18T07:24:52;14.27;;;3.10;;
8552;SDS011;73833;51.014;16.950;2023-11-18T07:27:17;5.10;;;2.67;;
8552;SDS011;73833;51.014;16.950;2023-11-18T07:29:42;6.38;;;2.97;;
8552;SDS011;73833;51.014;16.950;2023-11-18T07:32:10;4.97;;;3.00;;
8552;SDS011;73833;51.014;16.950;2023-11-18T07:34:35;4.13;;;3.03;;
8552;SDS011;73833;51.014;16.950;2023-11-18T07:37:01;5.78;;;2.90;;
8552;SDS011;73833;51.014;16.950;2023-11-18T07:39:27;3.60;;;3.30;;
8552;SDS011;73833;51.014;16.950;2023-11-18T07:42:08;4.45;;;2.83;;
8552;SDS011;73833;51.014;16.950;2023-11-18T07:44:34;7.45;;;3.25;;
8552;SDS011;73833;51.014;16.950;2023-11-18T07:46:59;6.50;;;3.10;;
8552;SDS011;73833;51.014;16.950;2023-11-18T07:49:24;10.82;;;3.60;;
8552;SDS011;73833;51.014;16.950;2023-11-18T07:51:51;9.18;;;3.67;;
8552;SDS011;73833;51.014;16.950;2023-11-18T07:54:16;10.05;;;4.05;;
8552;SDS011;73833;51.014;16.950;2023-11-18T07:56:43;8.63;;;4.15;;
8552;SDS011;73833;51.014;16.950;2023-11-18T07:59:11;14.48;;;5.30;;
8552;SDS011;73833;51.014;16.950;2023-11-18T08:01:41;12.00;;;4.93;;
8552;SDS011;73833;51.014;16.950;2023-11-18T08:04:09;13.02;;;5.05;;
8552;SDS011;73833;51.014;16.950;2023-11-18T08:06:34;11.80;;;5.45;;
8552;SDS011;73833;51.014;16.950;2023-11-18T08:08:59;14.98;;;5.93;;
8552;SDS011;73833;51.014;16.950;2023-11-18T08:11:24;10.95;;;5.55;;
8552;SDS011;73833;51.014;16.950;2023-11-18T08:13:50;16.80;;;5.45;;
8552;SDS011;73833;51.014;16.950;2023-11-18T08:16:15;16.83;;;6.72;;
8552;SDS011;73833;51.014;16.950;2023-11-18T08:18:41;14.10;;;6.07;;
8552;SDS011;73833;51.014;16.950;2023-11-18T08:21:06;15.18;;;5.63;;
8552;SDS011;73833;51.014;16.950;2023-11-18T08:23:32;18.42;;;5.65;;
8552;SDS011;73833;51.014;16.950;2023-11-18T08:25:58;14.82;;;6.00;;
8552;SDS011;73833;51.014;16.950;2023-11-18T08:28:23;24.13;;;6.60;;
8552;SDS011;73833;51.014;16.950;2023-11-18T08:30:49;12.20;;;5.88;;
8552;SDS011;73833;51.014;16.950;2023-11-18T08:33:16;17.08;;;6.68;;
8552;SDS011;73833;51.014;16.950;2023-11-18T08:35:41;17.20;;;6.80;;
8552;SDS011;73833;51.014;16.950;2023-11-18T08:38:07;19.15;;;6.85;;
8552;SDS011;73833;51.014;16.950;2023-11-18T08:40:32;13.77;;;6.20;;
8552;SDS011;73833;51.014;16.950;2023-11-18T08:42:58;18.38;;;7.25;;
8552;SDS011;73833;51.014;16.950;2023-11-18T08:45:24;14.85;;;6.35;;
8552;SDS011;73833;51.014;16.950;2023-11-18T08:47:58;20.25;;;6.72;;
8552;SDS011;73833;51.014;16.950;2023-11-18T08:50:25;15.32;;;6.32;;
8552;SDS011;73833;51.014;16.950;2023-11-18T08:52:50;13.93;;;6.28;;
8552;SDS011;73833;51.014;16.950;2023-11-18T08:55:19;13.38;;;6.07;;
8552;SDS011;73833;51.014;16.950;2023-11-18T08:58:02;17.27;;;6.45;;
8552;SDS011;73833;51.014;16.950;2023-11-18T09:00:35;13.90;;;6.63;;
8552;SDS011;73833;51.014;16.950;2023-11-18T09:03:13;13.77;;;5.93;;
8552;SDS011;73833;51.014;16.950;2023-11-18T09:06:09;14.05;;;6.32;;
8552;SDS011;73833;51.014;16.950;2023-11-18T09:08:42;14.65;;;6.35;;
8552;SDS011;73833;51.014;16.950;2023-11-18T09:11:09;15.52;;;5.43;;
8552;SDS011;73833;51.014;16.950;2023-11-18T09:13:42;13.30;;;6.63;;
8552;SDS011;73833;51.014;16.950;2023-11-18T09:16:08;12.27;;;5.30;;
8552;SDS011;73833;51.014;16.950;2023-11-18T09:18:34;15.60;;;6.22;;
8552;SDS011;73833;51.014;16.950;2023-11-18T09:21:00;12.63;;;5.22;;
8552;SDS011;73833;51.014;16.950;2023-11-18T09:23:30;14.43;;;6.07;;
8552;SDS011;73833;51.014;16.950;2023-11-18T09:25:57;13.88;;;6.05;;
8552;SDS011;73833;51.014;16.950;2023-11-18T09:28:26;11.50;;;5.43;;
8552;SDS011;73833;51.014;16.950;2023-11-18T09:30:54;10.38;;;5.38;;
8552;SDS011;73833;51.014;16.950;2023-11-18T09:33:23;15.57;;;5.72;;
8552;SDS011;73833;51.014;16.950;2023-11-18T09:36:00;12.40;;;5.28;;
8552;SDS011;73833;51.014;16.950;2023-11-18T09:38:32;9.90;;;5.72;;
8552;SDS011;73833;51.014;16.950;2023-11-18T09:41:00;7.97;;;5.10;;
8552;SDS011;73833;51.014;16.950;2023-11-18T09:43:31;8.45;;;5.05;;
8552;SDS011;73833;51.014;16.950;2023-11-18T09:48:47;9.65;;;5.47;;
8552;SDS011;73833;51.014;16.950;2023-11-18T09:51:15;11.48;;;5.38;;
8552;SDS011;73833;51.014;16.950;2023-11-18T09:53:42;8.02;;;5.03;;
8552;SDS011;73833;51.014;16.950;2023-11-18T09:56:14;8.98;;;5.13;;
8552;SDS011;73833;51.014;16.950;2023-11-18T09:58:54;8.13;;;5.05;;
8552;SDS011;73833;51.014;16.950;2023-11-18T10:01:24;6.25;;;5.22;;
8552;SDS011;73833;51.014;16.950;2023-11-18T10:03:52;9.05;;;4.50;;
8552;SDS011;73833;51.014;16.950;2023-11-18T10:06:18;9.18;;;4.93;;
8552;SDS011;73833;51.014;16.950;2023-11-18T10:08:46;9.65;;;4.97;;
8552;SDS011;73833;51.014;16.950;2023-11-18T10:11:13;6.82;;;4.13;;
8552;SDS011;73833;51.014;16.950;2023-11-18T10:13:39;6.88;;;4.70;;
8552;SDS011;73833;51.014;16.950;2023-11-18T10:16:06;8.18;;;4.82;;
8552;SDS011;73833;51.014;16.950;2023-11-18T10:18:31;9.70;;;4.68;;
8552;SDS011;73833;51.014;16.950;2023-11-18T10:21:01;6.18;;;4.60;;
8552;SDS011;73833;51.014;16.950;2023-11-18T10:23:29;6.80;;;4.45;;
8552;SDS011;73833;51.014;16.950;2023-11-18T10:25:54;6.30;;;4.55;;
8552;SDS011;73833;51.014;16.950;2023-11-18T10:28:35;5.32;;;4.00;;
8552;SDS011;73833;51.014;16.950;2023-11-18T10:31:03;7.20;;;4.15;;
8552;SDS011;73833;51.014;16.950;2023-11-18T10:33:35;6.15;;;4.72;;
8552;SDS011;73833;51.014;16.950;2023-11-18T10:36:02;6.80;;;4.28;;
8552;SDS011;73833;51.014;16.950;2023-11-18T10:38:31;6.90;;;4.57;;
8552;SDS011;73833;51.014;16.950;2023-11-18T10:40:57;6.07;;;4.22;;
8552;SDS011;73833;51.014;16.950;2023-11-18T10:43:23;5.80;;;4.25;;
8552;SDS011;73833;51.014;16.950;2023-11-18T10:45:52;7.88;;;4.25;;
8552;SDS011;73833;51.014;16.950;2023-11-18T10:48:17;8.13;;;4.32;;
8552;SDS011;73833;51.014;16.950;2023-11-18T10:50:45;10.20;;;4.85;;
8552;SDS011;73833;51.014;16.950;2023-11-18T10:53:10;7.07;;;4.50;;
8552;SDS011;73833;51.014;16.950;2023-11-18T10:55:38;7.00;;;4.50;;
8552;SDS011;73833;51.014;16.950;2023-11-18T10:58:05;6.00;;;4.22;;
8552;SDS011;73833;51.014;16.950;2023-11-18T11:00:48;5.70;;;4.20;;
8552;SDS011;73833;51.014;16.950;2023-11-18T11:03:14;10.57;;;5.15;;
8552;SDS011;73833;51.014;16.950;2023-11-18T11:05:39;6.82;;;4.55;;
8552;SDS011;73833;51.014;16.950;2023-11-18T11:08:07;8.48;;;4.68;;
8552;SDS011;73833;51.014;16.950;2023-11-18T11:10:33;9.90;;;4.68;;
8552;SDS011;73833;51.014;16.950;2023-11-18T11:13:00;8.05;;;4.65;;
8552;SDS011;73833;51.014;16.950;2023-11-18T11:15:30;6.53;;;4.38;;
8552;SDS011;73833;51.014;16.950;2023-11-18T11:17:58;5.43;;;4.25;;
8552;SDS011;73833;51.014;16.950;2023-11-18T11:20:33;5.30;;;4.57;;
8552;SDS011;73833;51.014;16.950;2023-11-18T11:26:55;5.85;;;4.65;;
8552;SDS011;73833;51.014;16.950;2023-11-18T11:31:54;5.15;;;3.58;;
8552;SDS011;73833;51.014;16.950;2023-11-18T11:34:23;4.72;;;4.13;;
8552;SDS011;73833;51.014;16.950;2023-11-18T11:36:51;10.20;;;4.68;;
8552;SDS011;73833;51.014;16.950;2023-11-18T11:39:17;5.43;;;4.25;;
8552;SDS011;73833;51.014;16.950;2023-11-18T11:41:50;5.00;;;3.97;;
8552;SDS011;73833;51.014;16.950;2023-11-18T11:44:16;6.88;;;3.83;;
8552;SDS011;73833;51.014;16.950;2023-11-18T11:46:44;4.38;;;3.97;;
8552;SDS011;73833;51.014;16.950;2023-11-18T11:49:10;3.83;;;3.42;;
8552;SDS011;73833;51.014;16.950;2023-11-18T11:52:30;5.40;;;4.38;;
8552;SDS011;73833;51.014;16.950;2023-11-18T11:54:37;5.50;;;4.03;;
8552;SDS011;73833;51.014;16.950;2023-11-18T11:57:04;8.85;;;4.53;;
8552;SDS011;73833;51.014;16.950;2023-11-18T12:02:07;8.63;;;4.35;;
8552;SDS011;73833;51.014;16.950;2023-11-18T12:04:34;6.18;;;4.45;;
8552;SDS011;73833;51.014;16.950;2023-11-18T12:07:03;6.13;;;3.83;;
8552;SDS011;73833;51.014;16.950;2023-11-18T12:09:31;6.80;;;4.30;;
8552;SDS011;73833;51.014;16.950;2023-11-18T12:12:03;4.25;;;3.70;;
8552;SDS011;73833;51.014;16.950;2023-11-18T12:14:29;4.45;;;3.95;;
8552;SDS011;73833;51.014;16.950;2023-11-18T12:17:04;4.93;;;3.85;;
8552;SDS011;73833;51.014;16.950;2023-11-18T12:19:39;5.78;;;3.90;;
8552;SDS011;73833;51.014;16.950;2023-11-18T12:22:20;6.05;;;4.03;;
8552;SDS011;73833;51.014;16.950;2023-11-18T12:40:59;6.45;;;4.65;;
8552;SDS011;73833;51.014;16.950;2023-11-18T12:48:30;13.10;;;5.25;;
8552;SDS011;73833;51.014;16.950;2023-11-18T12:50:57;15.18;;;5.72;;
8552;SDS011;73833;51.014;16.950;2023-11-18T12:53:25;11.45;;;5.47;;
8552;SDS011;73833;51.014;16.950;2023-11-18T12:55:52;13.40;;;6.50;;
8552;SDS011;73833;51.014;16.950;2023-11-18T12:58:17;12.75;;;6.75;;
8552;SDS011;73833;51.014;16.950;2023-11-18T13:00:43;23.65;;;7.95;;
8552;SDS011;73833;51.014;16.950;2023-11-18T13:03:10;17.83;;;7.28;;
8552;SDS011;73833;51.014;16.950;2023-11-18T13:05:35;21.55;;;8.25;;
8552;SDS011;73833;51.014;16.950;2023-11-18T13:08:02;23.77;;;8.00;;
8552;SDS011;73833;51.014;16.950;2023-11-18T13:10:27;17.17;;;8.00;;
8552;SDS011;73833;51.014;16.950;2023-11-18T13:12:55;19.63;;;8.70;;
8552;SDS011;73833;51.014;16.950;2023-11-18T13:15:23;16.75;;;8.77;;
8552;SDS011;73833;51.014;16.950;2023-11-18T13:17:59;20.13;;;9.02;;
8552;SDS011;73833;51.014;16.950;2023-11-18T13:20:25;20.30;;;9.15;;
8552;SDS011;73833;51.014;16.950;2023-11-18T13:22:51;20.90;;;9.07;;
8552;SDS011;73833;51.014;16.950;2023-11-18T13:25:17;18.67;;;8.02;;
8552;SDS011;73833;51.014;16.950;2023-11-18T13:27:42;20.08;;;7.50;;
8552;SDS011;73833;51.014;16.950;2023-11-18T13:30:08;18.92;;;8.27;;
8552;SDS011;73833;51.014;16.950;2023-11-18T13:32:40;20.73;;;7.80;;
8552;SDS011;73833;51.014;16.950;2023-11-18T13:35:05;20.60;;;8.20;;
8552;SDS011;73833;51.014;16.950;2023-11-18T13:37:32;17.85;;;7.93;;
8552;SDS011;73833;51.014;16.950;2023-11-18T13:39:57;26.73;;;9.13;;
8552;SDS011;73833;51.014;16.950;2023-11-18T13:42:26;19.95;;;7.28;;
8552;SDS011;73833;51.014;16.950;2023-11-18T13:44:53;19.27;;;7.80;;
8552;SDS011;73833;51.014;16.950;2023-11-18T13:47:19;19.52;;;7.80;;
8552;SDS011;73833;51.014;16.950;2023-11-18T13:49:44;16.83;;;7.53;;
8552;SDS011;73833;51.014;16.950;2023-11-18T13:52:12;17.20;;;8.10;;
8552;SDS011;73833;51.014;16.950;2023-11-18T13:54:37;18.73;;;8.27;;
8552;SDS011;73833;51.014;16.950;2023-11-18T13:57:03;13.13;;;7.43;;
8552;SDS011;73833;51.014;16.950;2023-11-18T13:59:29;16.92;;;7.45;;
8552;SDS011;73833;51.014;16.950;2023-11-18T14:01:55;14.70;;;7.28;;
8552;SDS011;73833;51.014;16.950;2023-11-18T14:04:24;15.45;;;7.78;;
8552;SDS011;73833;51.014;16.950;2023-11-18T14:06:52;15.00;;;7.50;;
8552;SDS011;73833;51.014;16.950;2023-11-18T14:09:18;11.65;;;7.22;;
8552;SDS011;73833;51.014;16.950;2023-11-18T14:11:46;12.38;;;6.55;;
8552;SDS011;73833;51.014;16.950;2023-11-18T14:14:11;16.45;;;7.85;;
8552;SDS011;73833;51.014;16.950;2023-11-18T14:16:37;12.27;;;7.57;;
8552;SDS011;73833;51.014;16.950;2023-11-18T14:19:05;14.93;;;7.75;;
8552;SDS011;73833;51.014;16.950;2023-11-18T14:21:31;13.00;;;6.82;;
8552;SDS011;73833;51.014;16.950;2023-11-18T14:23:56;10.18;;;6.80;;
8552;SDS011;73833;51.014;16.950;2023-11-18T14:26:25;14.05;;;6.85;;
8552;SDS011;73833;51.014;16.950;2023-11-18T14:28:50;11.15;;;6.57;;
8552;SDS011;73833;51.014;16.950;2023-11-18T14:31:15;10.52;;;6.32;;
8552;SDS011;73833;51.014;16.950;2023-11-18T14:33:40;11.25;;;7.15;;
8552;SDS011;73833;51.014;16.950;2023-11-18T14:36:07;12.88;;;6.93;;
8552;SDS011;73833;51.014;16.950;2023-11-18T14:38:34;9.60;;;6.47;;
8552;SDS011;73833;51.014;16.950;2023-11-18T14:40:59;13.35;;;7.15;;
8552;SDS011;73833;51.014;16.950;2023-11-18T14:43:24;12.20;;;6.25;;
8552;SDS011;73833;51.014;16.950;2023-11-18T14:45:49;13.90;;;7.22;;
8552;SDS011;73833;51.014;16.950;2023-11-18T14:48:15;13.63;;;6.85;;
8552;SDS011;73833;51.014;16.950;2023-11-18T14:50:40;9.70;;;6.97;;
8552;SDS011;73833;51.014;16.950;2023-11-18T14:53:05;11.82;;;6.95;;
8552;SDS011;73833;51.014;16.950;2023-11-18T14:55:31;10.80;;;6.57;;
8552;SDS011;73833;51.014;16.950;2023-11-18T14:57:57;11.07;;;5.93;;
8552;SDS011;73833;51.014;16.950;2023-11-18T15:00:23;10.15;;;6.38;;
8552;SDS011;73833;51.014;16.950;2023-11-18T15:02:51;10.32;;;6.47;;
8552;SDS011;73833;51.014;16.950;2023-11-18T15:05:17;11.35;;;6.00;;
8552;SDS011;73833;51.014;16.950;2023-11-18T15:07:47;11.15;;;6.20;;
8552;SDS011;73833;51.014;16.950;2023-11-18T15:10:18;10.18;;;6.22;;
8552;SDS011;73833;51.014;16.950;2023-11-18T15:12:45;8.18;;;5.53;;
8552;SDS011;73833;51.014;16.950;2023-11-18T15:15:10;9.65;;;6.55;;
8552;SDS011;73833;51.014;16.950;2023-11-18T15:17:43;9.23;;;5.38;;